Rixford, Pennsylvania
Current Conditions -  °F | °C
As of 7:53 AM on Wednesday 26 Nov 2014 (Local Time) from KBFD Reporting Station
Overcast Overcast  
Wind Chill: 23°   Ceiling: 11000
Heat Index: 30°   Visibility: 10mi
Dew Point: 23°   Wind: 7mph
Humidity: 75%   Direction: 70°ENE
Pressure: 30.04"   Gusts: NA
Location:  41.93°N, 78.49°W
Report Text: KBFD 261253Z AUTO 07006KT 10SM OVC110 M01/M05 A3004 RMK AO2 SLP192 T10111050
Loading
Personal Weather Stations






























Interactive Weather Map New forecast layout! Learn more

10-Day Weather Forecast

Advertisements
Track Severe Weather on mobile